sensor_id;sensor_type;location;lat;lon;timestamp;P1;durP1;ratioP1;P2;durP2;ratioP2
9834;SDS011;4956;50.996;13.716;2023-02-02T00:00:07;6.00;;;1.70;;
9834;SDS011;4956;50.996;13.716;2023-02-02T00:03:28;4.10;;;1.40;;
9834;SDS011;4956;50.996;13.716;2023-02-02T00:06:49;4.05;;;1.27;;
9834;SDS011;4956;50.996;13.716;2023-02-02T00:10:10;6.20;;;1.77;;
9834;SDS011;4956;50.996;13.716;2023-02-02T00:13:30;6.10;;;1.67;;
9834;SDS011;4956;50.996;13.716;2023-02-02T00:16:52;4.63;;;1.58;;
9834;SDS011;4956;50.996;13.716;2023-02-02T00:20:13;6.40;;;1.98;;
9834;SDS011;4956;50.996;13.716;2023-02-02T00:23:33;8.20;;;1.95;;
9834;SDS011;4956;50.996;13.716;2023-02-02T00:26:55;6.22;;;1.70;;
9834;SDS011;4956;50.996;13.716;2023-02-02T00:30:16;8.15;;;1.63;;
9834;SDS011;4956;50.996;13.716;2023-02-02T00:33:36;8.90;;;1.90;;
9834;SDS011;4956;50.996;13.716;2023-02-02T00:36:56;6.47;;;1.67;;
9834;SDS011;4956;50.996;13.716;2023-02-02T00:40:17;5.90;;;1.65;;
9834;SDS011;4956;50.996;13.716;2023-02-02T00:43:37;4.95;;;1.60;;
9834;SDS011;4956;50.996;13.716;2023-02-02T00:46:57;8.43;;;1.80;;
9834;SDS011;4956;50.996;13.716;2023-02-02T00:50:18;5.40;;;1.55;;
9834;SDS011;4956;50.996;13.716;2023-02-02T00:53:39;8.20;;;1.98;;
9834;SDS011;4956;50.996;13.716;2023-02-02T00:57:00;5.18;;;1.48;;
9834;SDS011;4956;50.996;13.716;2023-02-02T01:00:22;5.78;;;1.27;;
9834;SDS011;4956;50.996;13.716;2023-02-02T01:03:43;5.15;;;1.50;;
9834;SDS011;4956;50.996;13.716;2023-02-02T01:07:04;7.75;;;1.52;;
9834;SDS011;4956;50.996;13.716;2023-02-02T01:10:24;5.68;;;1.67;;
9834;SDS011;4956;50.996;13.716;2023-02-02T01:13:45;4.88;;;1.50;;
9834;SDS011;4956;50.996;13.716;2023-02-02T01:17:06;7.07;;;1.70;;
9834;SDS011;4956;50.996;13.716;2023-02-02T01:20:26;7.38;;;1.50;;
9834;SDS011;4956;50.996;13.716;2023-02-02T01:23:47;7.00;;;1.58;;
9834;SDS011;4956;50.996;13.716;2023-02-02T01:27:07;7.78;;;1.67;;
9834;SDS011;4956;50.996;13.716;2023-02-02T01:30:27;9.27;;;2.08;;
9834;SDS011;4956;50.996;13.716;2023-02-02T01:33:49;8.75;;;1.55;;
9834;SDS011;4956;50.996;13.716;2023-02-02T01:37:09;11.55;;;1.60;;
9834;SDS011;4956;50.996;13.716;2023-02-02T01:40:30;8.48;;;1.70;;
9834;SDS011;4956;50.996;13.716;2023-02-02T01:43:51;7.45;;;1.48;;
9834;SDS011;4956;50.996;13.716;2023-02-02T01:47:14;6.07;;;1.38;;
9834;SDS011;4956;50.996;13.716;2023-02-02T01:50:34;6.35;;;1.40;;
9834;SDS011;4956;50.996;13.716;2023-02-02T01:53:54;9.48;;;1.88;;
9834;SDS011;4956;50.996;13.716;2023-02-02T01:57:17;5.88;;;1.48;;
9834;SDS011;4956;50.996;13.716;2023-02-02T02:00:50;6.78;;;1.40;;
9834;SDS011;4956;50.996;13.716;2023-02-02T02:04:11;7.95;;;1.30;;
9834;SDS011;4956;50.996;13.716;2023-02-02T02:07:32;4.22;;;1.40;;
9834;SDS011;4956;50.996;13.716;2023-02-02T02:10:52;8.25;;;1.20;;
9834;SDS011;4956;50.996;13.716;2023-02-02T02:14:13;9.65;;;1.73;;
9834;SDS011;4956;50.996;13.716;2023-02-02T02:22:05;7.78;;;1.73;;
9834;SDS011;4956;50.996;13.716;2023-02-02T02:30:40;9.90;;;1.98;;
9834;SDS011;4956;50.996;13.716;2023-02-02T02:33:53;8.02;;;1.73;;
9834;SDS011;4956;50.996;13.716;2023-02-02T02:41:10;7.85;;;1.77;;
9834;SDS011;4956;50.996;13.716;2023-02-02T02:44:33;8.50;;;1.80;;
9834;SDS011;4956;50.996;13.716;2023-02-02T02:47:55;5.50;;;1.33;;
9834;SDS011;4956;50.996;13.716;2023-02-02T02:55:03;7.38;;;1.85;;
9834;SDS011;4956;50.996;13.716;2023-02-02T02:58:28;5.53;;;1.50;;
9834;SDS011;4956;50.996;13.716;2023-02-02T03:05:32;7.22;;;1.40;;
9834;SDS011;4956;50.996;13.716;2023-02-02T03:09:03;5.88;;;1.30;;
9834;SDS011;4956;50.996;13.716;2023-02-02T03:12:25;10.48;;;1.45;;
9834;SDS011;4956;50.996;13.716;2023-02-02T03:15:45;9.38;;;1.40;;
9834;SDS011;4956;50.996;13.716;2023-02-02T03:19:06;8.55;;;1.70;;
9834;SDS011;4956;50.996;13.716;2023-02-02T03:22:27;6.72;;;1.42;;
9834;SDS011;4956;50.996;13.716;2023-02-02T03:25:47;8.68;;;1.52;;
9834;SDS011;4956;50.996;13.716;2023-02-02T03:29:07;7.57;;;1.25;;
9834;SDS011;4956;50.996;13.716;2023-02-02T03:32:28;7.18;;;1.30;;
9834;SDS011;4956;50.996;13.716;2023-02-02T03:35:48;7.50;;;1.50;;
9834;SDS011;4956;50.996;13.716;2023-02-02T03:39:08;9.80;;;1.45;;
9834;SDS011;4956;50.996;13.716;2023-02-02T03:42:29;9.23;;;1.52;;
9834;SDS011;4956;50.996;13.716;2023-02-02T03:45:59;7.43;;;1.40;;
9834;SDS011;4956;50.996;13.716;2023-02-02T03:49:21;6.28;;;1.55;;
9834;SDS011;4956;50.996;13.716;2023-02-02T03:52:42;5.40;;;1.20;;
9834;SDS011;4956;50.996;13.716;2023-02-02T03:56:02;6.63;;;1.35;;
9834;SDS011;4956;50.996;13.716;2023-02-02T03:59:22;10.18;;;1.45;;
9834;SDS011;4956;50.996;13.716;2023-02-02T04:02:43;6.97;;;1.13;;
9834;SDS011;4956;50.996;13.716;2023-02-02T04:06:03;7.93;;;1.15;;
9834;SDS011;4956;50.996;13.716;2023-02-02T04:09:24;11.18;;;1.60;;
9834;SDS011;4956;50.996;13.716;2023-02-02T04:12:44;10.60;;;1.30;;
9834;SDS011;4956;50.996;13.716;2023-02-02T04:16:05;10.25;;;1.60;;
9834;SDS011;4956;50.996;13.716;2023-02-02T04:19:25;6.13;;;1.20;;
9834;SDS011;4956;50.996;13.716;2023-02-02T04:22:45;8.30;;;1.17;;
9834;SDS011;4956;50.996;13.716;2023-02-02T04:26:06;8.00;;;1.48;;
9834;SDS011;4956;50.996;13.716;2023-02-02T04:29:26;8.55;;;1.45;;
9834;SDS011;4956;50.996;13.716;2023-02-02T04:32:46;8.45;;;1.40;;
9834;SDS011;4956;50.996;13.716;2023-02-02T04:36:07;10.65;;;1.52;;
9834;SDS011;4956;50.996;13.716;2023-02-02T04:39:27;8.27;;;1.08;;
9834;SDS011;4956;50.996;13.716;2023-02-02T04:42:48;9.27;;;1.27;;
9834;SDS011;4956;50.996;13.716;2023-02-02T04:46:08;10.85;;;1.40;;
9834;SDS011;4956;50.996;13.716;2023-02-02T04:49:28;7.43;;;1.30;;
9834;SDS011;4956;50.996;13.716;2023-02-02T04:52:49;10.15;;;1.63;;
9834;SDS011;4956;50.996;13.716;2023-02-02T04:56:16;7.53;;;1.38;;
9834;SDS011;4956;50.996;13.716;2023-02-02T04:59:37;7.30;;;1.48;;
9834;SDS011;4956;50.996;13.716;2023-02-02T05:02:57;10.73;;;1.30;;
9834;SDS011;4956;50.996;13.716;2023-02-02T05:06:18;7.82;;;1.45;;
9834;SDS011;4956;50.996;13.716;2023-02-02T05:09:39;11.30;;;1.73;;
9834;SDS011;4956;50.996;13.716;2023-02-02T05:12:59;10.02;;;1.50;;
9834;SDS011;4956;50.996;13.716;2023-02-02T05:16:20;5.38;;;1.38;;
9834;SDS011;4956;50.996;13.716;2023-02-02T05:19:41;7.55;;;1.40;;
9834;SDS011;4956;50.996;13.716;2023-02-02T05:23:01;10.18;;;1.77;;
9834;SDS011;4956;50.996;13.716;2023-02-02T05:26:22;10.82;;;1.52;;
9834;SDS011;4956;50.996;13.716;2023-02-02T05:29:45;9.05;;;1.35;;
9834;SDS011;4956;50.996;13.716;2023-02-02T05:33:06;8.63;;;1.38;;
9834;SDS011;4956;50.996;13.716;2023-02-02T05:36:26;6.72;;;1.42;;
9834;SDS011;4956;50.996;13.716;2023-02-02T05:39:47;8.70;;;1.52;;
9834;SDS011;4956;50.996;13.716;2023-02-02T05:43:08;7.90;;;1.58;;
9834;SDS011;4956;50.996;13.716;2023-02-02T05:46:29;13.55;;;1.65;;
9834;SDS011;4956;50.996;13.716;2023-02-02T05:49:49;8.07;;;1.20;;
9834;SDS011;4956;50.996;13.716;2023-02-02T05:53:09;7.90;;;1.48;;
9834;SDS011;4956;50.996;13.716;2023-02-02T05:56:31;11.30;;;1.63;;
9834;SDS011;4956;50.996;13.716;2023-02-02T05:59:52;11.20;;;1.75;;
9834;SDS011;4956;50.996;13.716;2023-02-02T06:03:13;11.35;;;1.98;;
9834;SDS011;4956;50.996;13.716;2023-02-02T06:06:33;12.30;;;1.60;;
9834;SDS011;4956;50.996;13.716;2023-02-02T06:09:54;14.48;;;1.80;;
9834;SDS011;4956;50.996;13.716;2023-02-02T06:13:15;9.52;;;1.38;;
9834;SDS011;4956;50.996;13.716;2023-02-02T06:16:35;12.27;;;2.10;;
9834;SDS011;4956;50.996;13.716;2023-02-02T06:19:55;9.55;;;1.80;;
9834;SDS011;4956;50.996;13.716;2023-02-02T06:23:16;10.18;;;1.70;;
9834;SDS011;4956;50.996;13.716;2023-02-02T06:26:36;8.07;;;1.50;;
9834;SDS011;4956;50.996;13.716;2023-02-02T06:29:56;11.07;;;1.45;;
9834;SDS011;4956;50.996;13.716;2023-02-02T06:33:17;9.77;;;1.70;;
9834;SDS011;4956;50.996;13.716;2023-02-02T06:36:37;10.60;;;1.60;;
9834;SDS011;4956;50.996;13.716;2023-02-02T06:39:57;7.75;;;1.40;;
9834;SDS011;4956;50.996;13.716;2023-02-02T06:43:17;8.77;;;1.65;;
9834;SDS011;4956;50.996;13.716;2023-02-02T06:46:38;11.98;;;1.83;;
9834;SDS011;4956;50.996;13.716;2023-02-02T06:49:58;10.85;;;1.60;;
9834;SDS011;4956;50.996;13.716;2023-02-02T06:53:18;11.75;;;2.10;;
9834;SDS011;4956;50.996;13.716;2023-02-02T06:56:42;12.00;;;1.77;;
9834;SDS011;4956;50.996;13.716;2023-02-02T07:00:03;12.35;;;1.40;;
9834;SDS011;4956;50.996;13.716;2023-02-02T07:03:23;13.90;;;2.00;;
9834;SDS011;4956;50.996;13.716;2023-02-02T07:06:44;17.70;;;1.92;;
9834;SDS011;4956;50.996;13.716;2023-02-02T07:10:05;14.38;;;1.80;;
9834;SDS011;4956;50.996;13.716;2023-02-02T07:13:25;11.48;;;1.80;;
9834;SDS011;4956;50.996;13.716;2023-02-02T07:16:45;13.32;;;2.10;;
9834;SDS011;4956;50.996;13.716;2023-02-02T07:20:06;13.57;;;2.20;;
9834;SDS011;4956;50.996;13.716;2023-02-02T07:23:27;11.30;;;2.03;;
9834;SDS011;4956;50.996;13.716;2023-02-02T07:26:48;13.13;;;2.03;;
9834;SDS011;4956;50.996;13.716;2023-02-02T07:30:09;11.63;;;2.42;;
9834;SDS011;4956;50.996;13.716;2023-02-02T07:33:29;16.40;;;2.15;;
9834;SDS011;4956;50.996;13.716;2023-02-02T07:36:50;11.82;;;1.58;;
9834;SDS011;4956;50.996;13.716;2023-02-02T07:40:10;9.13;;;1.48;;
9834;SDS011;4956;50.996;13.716;2023-02-02T07:43:31;11.88;;;1.77;;
9834;SDS011;4956;50.996;13.716;2023-02-02T07:46:51;8.35;;;1.48;;
9834;SDS011;4956;50.996;13.716;2023-02-02T07:50:12;9.73;;;1.65;;
9834;SDS011;4956;50.996;13.716;2023-02-02T07:53:32;12.40;;;1.63;;
9834;SDS011;4956;50.996;13.716;2023-02-02T07:56:53;10.75;;;2.10;;
9834;SDS011;4956;50.996;13.716;2023-02-02T08:00:13;10.23;;;2.03;;
9834;SDS011;4956;50.996;13.716;2023-02-02T08:03:34;12.98;;;2.17;;
9834;SDS011;4956;50.996;13.716;2023-02-02T08:06:55;13.70;;;1.98;;
9834;SDS011;4956;50.996;13.716;2023-02-02T08:10:15;11.45;;;1.70;;
9834;SDS011;4956;50.996;13.716;2023-02-02T08:13:36;8.07;;;1.92;;
9834;SDS011;4956;50.996;13.716;2023-02-02T08:16:56;10.15;;;1.73;;
9834;SDS011;4956;50.996;13.716;2023-02-02T08:20:17;13.32;;;1.75;;
9834;SDS011;4956;50.996;13.716;2023-02-02T08:23:38;11.50;;;1.63;;
9834;SDS011;4956;50.996;13.716;2023-02-02T08:27:01;12.90;;;2.15;;
9834;SDS011;4956;50.996;13.716;2023-02-02T08:30:21;12.90;;;1.67;;
9834;SDS011;4956;50.996;13.716;2023-02-02T08:33:41;12.23;;;2.00;;
9834;SDS011;4956;50.996;13.716;2023-02-02T08:37:02;11.50;;;1.88;;
9834;SDS011;4956;50.996;13.716;2023-02-02T08:40:22;10.57;;;2.03;;
9834;SDS011;4956;50.996;13.716;2023-02-02T08:43:44;13.75;;;2.03;;
9834;SDS011;4956;50.996;13.716;2023-02-02T08:47:05;13.63;;;2.17;;
9834;SDS011;4956;50.996;13.716;2023-02-02T08:50:25;14.23;;;2.10;;
9834;SDS011;4956;50.996;13.716;2023-02-02T08:53:45;11.73;;;2.10;;
9834;SDS011;4956;50.996;13.716;2023-02-02T08:57:06;9.57;;;2.00;;
9834;SDS011;4956;50.996;13.716;2023-02-02T09:00:26;13.52;;;1.90;;
9834;SDS011;4956;50.996;13.716;2023-02-02T09:03:56;12.48;;;2.33;;
9834;SDS011;4956;50.996;13.716;2023-02-02T09:07:19;13.85;;;2.30;;
9834;SDS011;4956;50.996;13.716;2023-02-02T09:10:39;13.75;;;2.38;;
9834;SDS011;4956;50.996;13.716;2023-02-02T09:13:59;13.13;;;2.30;;
9834;SDS011;4956;50.996;13.716;2023-02-02T09:17:22;10.57;;;2.00;;
9834;SDS011;4956;50.996;13.716;2023-02-02T09:20:43;12.45;;;2.10;;
9834;SDS011;4956;50.996;13.716;2023-02-02T09:24:07;12.55;;;2.22;;
9834;SDS011;4956;50.996;13.716;2023-02-02T09:27:29;15.73;;;3.50;;
9834;SDS011;4956;50.996;13.716;2023-02-02T09:30:49;14.75;;;2.15;;
9834;SDS011;4956;50.996;13.716;2023-02-02T09:34:10;12.38;;;2.20;;
9834;SDS011;4956;50.996;13.716;2023-02-02T09:37:32;11.98;;;2.03;;
9834;SDS011;4956;50.996;13.716;2023-02-02T09:40:53;12.75;;;2.38;;
9834;SDS011;4956;50.996;13.716;2023-02-02T09:44:25;13.80;;;2.42;;
9834;SDS011;4956;50.996;13.716;2023-02-02T09:48:14;12.48;;;2.35;;
9834;SDS011;4956;50.996;13.716;2023-02-02T09:51:40;12.30;;;1.98;;
9834;SDS011;4956;50.996;13.716;2023-02-02T09:58:47;13.10;;;2.13;;
9834;SDS011;4956;50.996;13.716;2023-02-02T10:02:18;9.98;;;1.88;;
9834;SDS011;4956;50.996;13.716;2023-02-02T10:05:55;14.60;;;2.03;;
9834;SDS011;4956;50.996;13.716;2023-02-02T10:12:46;9.02;;;2.20;;
9834;SDS011;4956;50.996;13.716;2023-02-02T10:16:15;9.23;;;2.13;;
9834;SDS011;4956;50.996;13.716;2023-02-02T10:19:36;14.93;;;2.65;;
9834;SDS011;4956;50.996;13.716;2023-02-02T10:22:58;10.07;;;2.00;;
9834;SDS011;4956;50.996;13.716;2023-02-02T10:29:58;9.68;;;2.28;;
9834;SDS011;4956;50.996;13.716;2023-02-02T10:33:24;8.90;;;2.30;;
9834;SDS011;4956;50.996;13.716;2023-02-02T10:36:55;12.82;;;2.38;;
9834;SDS011;4956;50.996;13.716;2023-02-02T10:41:05;10.25;;;2.38;;
9834;SDS011;4956;50.996;13.716;2023-02-02T10:44:36;11.68;;;2.10;;
9834;SDS011;4956;50.996;13.716;2023-02-02T10:48:01;11.95;;;2.42;;
9834;SDS011;4956;50.996;13.716;2023-02-02T10:51:23;16.85;;;2.17;;
9834;SDS011;4956;50.996;13.716;2023-02-02T10:54:57;9.45;;;2.40;;
9834;SDS011;4956;50.996;13.716;2023-02-02T11:01:40;8.67;;;1.73;;
9834;SDS011;4956;50.996;13.716;2023-02-02T11:05:00;10.30;;;1.67;;
9834;SDS011;4956;50.996;13.716;2023-02-02T11:08:51;13.43;;;2.10;;
9834;SDS011;4956;50.996;13.716;2023-02-02T11:12:19;12.93;;;2.13;;
9834;SDS011;4956;50.996;13.716;2023-02-02T11:15:42;13.00;;;2.13;;
9834;SDS011;4956;50.996;13.716;2023-02-02T11:22:38;10.63;;;2.00;;
9834;SDS011;4956;50.996;13.716;2023-02-02T11:25:59;12.55;;;2.05;;
9834;SDS011;4956;50.996;13.716;2023-02-02T11:29:28;13.10;;;2.60;;
9834;SDS011;4956;50.996;13.716;2023-02-02T11:32:58;9.50;;;2.42;;
9834;SDS011;4956;50.996;13.716;2023-02-02T11:36:20;11.35;;;2.30;;
9834;SDS011;4956;50.996;13.716;2023-02-02T11:39:41;13.50;;;2.13;;
9834;SDS011;4956;50.996;13.716;2023-02-02T11:43:48;11.25;;;2.00;;
9834;SDS011;4956;50.996;13.716;2023-02-02T11:46:47;8.35;;;1.92;;
9834;SDS011;4956;50.996;13.716;2023-02-02T11:50:14;10.80;;;2.45;;
9834;SDS011;4956;50.996;13.716;2023-02-02T11:53:46;13.93;;;2.53;;
9834;SDS011;4956;50.996;13.716;2023-02-02T11:57:07;10.18;;;2.40;;
9834;SDS011;4956;50.996;13.716;2023-02-02T12:00:29;10.80;;;2.13;;
9834;SDS011;4956;50.996;13.716;2023-02-02T12:03:49;10.73;;;2.10;;
9834;SDS011;4956;50.996;13.716;2023-02-02T12:10:48;10.60;;;2.25;;
9834;SDS011;4956;50.996;13.716;2023-02-02T12:14:23;12.95;;;2.00;;
9834;SDS011;4956;50.996;13.716;2023-02-02T12:36:21;9.77;;;2.35;;
9834;SDS011;4956;50.996;13.716;2023-02-02T12:43:35;12.98;;;2.45;;
9834;SDS011;4956;50.996;13.716;2023-02-02T12:47:01;14.55;;;2.28;;
9834;SDS011;4956;50.996;13.716;2023-02-02T12:50:43;11.73;;;1.98;;
9834;SDS011;4956;50.996;13.716;2023-02-02T12:54:21;8.77;;;1.95;;
9834;SDS011;4956;50.996;13.716;2023-02-02T13:01:47;15.35;;;2.28;;
9834;SDS011;4956;50.996;13.716;2023-02-02T13:12:34;7.60;;;2.00;;
9834;SDS011;4956;50.996;13.716;2023-02-02T13:16:02;9.38;;;1.77;;
9834;SDS011;4956;50.996;13.716;2023-02-02T13:19:34;11.57;;;1.88;;
9834;SDS011;4956;50.996;13.716;2023-02-02T13:23:10;9.10;;;2.00;;
9834;SDS011;4956;50.996;13.716;2023-02-02T13:26:35;7.70;;;1.85;;
9834;SDS011;4956;50.996;13.716;2023-02-02T13:30:02;8.82;;;2.40;;
9834;SDS011;4956;50.996;13.716;2023-02-02T13:33:28;7.93;;;2.13;;
9834;SDS011;4956;50.996;13.716;2023-02-02T13:37:07;10.82;;;2.22;;
9834;SDS011;4956;50.996;13.716;2023-02-02T13:40:35;11.50;;;1.77;;
9834;SDS011;4956;50.996;13.716;2023-02-02T13:43:58;5.35;;;1.38;;
9834;SDS011;4956;50.996;13.716;2023-02-02T13:47:24;8.60;;;1.65;;
9834;SDS011;4956;50.996;13.716;2023-02-02T13:58:54;7.45;;;1.67;;
9834;SDS011;4956;50.996;13.716;2023-02-02T14:02:28;20.20;;;2.45;;
9834;SDS011;4956;50.996;13.716;2023-02-02T14:09:45;10.05;;;1.92;;
9834;SDS011;4956;50.996;13.716;2023-02-02T14:20:42;15.65;;;2.13;;
9834;SDS011;4956;50.996;13.716;2023-02-02T14:27:57;10.90;;;2.28;;
9834;SDS011;4956;50.996;13.716;2023-02-02T14:31:29;12.00;;;2.10;;
9834;SDS011;4956;50.996;13.716;2023-02-02T14:38:44;7.00;;;2.03;;
9834;SDS011;4956;50.996;13.716;2023-02-02T14:46:24;14.10;;;5.63;;
9834;SDS011;4956;50.996;13.716;2023-02-02T14:49:54;9.68;;;2.97;;
9834;SDS011;4956;50.996;13.716;2023-02-02T14:56:44;6.78;;;2.00;;
9834;SDS011;4956;50.996;13.716;2023-02-02T15:07:49;9.40;;;2.90;;
9834;SDS011;4956;50.996;13.716;2023-02-02T15:11:11;6.10;;;1.90;;
9834;SDS011;4956;50.996;13.716;2023-02-02T15:15:01;12.07;;;1.90;;
9834;SDS011;4956;50.996;13.716;2023-02-02T15:18:27;10.93;;;1.90;;
9834;SDS011;4956;50.996;13.716;2023-02-02T15:21:50;7.47;;;1.85;;
9834;SDS011;4956;50.996;13.716;2023-02-02T15:32:16;8.82;;;2.13;;
9834;SDS011;4956;50.996;13.716;2023-02-02T15:35:39;9.15;;;2.15;;
9834;SDS011;4956;50.996;13.716;2023-02-02T15:39:00;7.93;;;2.33;;
9834;SDS011;4956;50.996;13.716;2023-02-02T15:42:36;9.75;;;2.08;;
9834;SDS011;4956;50.996;13.716;2023-02-02T15:46:13;7.43;;;2.42;;
9834;SDS011;4956;50.996;13.716;2023-02-02T15:49:42;9.40;;;2.00;;
9834;SDS011;4956;50.996;13.716;2023-02-02T15:53:04;11.20;;;2.58;;
9834;SDS011;4956;50.996;13.716;2023-02-02T15:59:49;7.35;;;2.55;;
9834;SDS011;4956;50.996;13.716;2023-02-02T16:03:11;8.60;;;2.25;;
9834;SDS011;4956;50.996;13.716;2023-02-02T16:06:34;7.80;;;2.15;;
9834;SDS011;4956;50.996;13.716;2023-02-02T16:09:54;7.45;;;2.70;;
9834;SDS011;4956;50.996;13.716;2023-02-02T16:13:24;5.68;;;2.38;;
9834;SDS011;4956;50.996;13.716;2023-02-02T16:16:46;4.07;;;2.17;;
9834;SDS011;4956;50.996;13.716;2023-02-02T16:20:10;5.70;;;2.50;;
9834;SDS011;4956;50.996;13.716;2023-02-02T16:23:33;6.80;;;2.25;;
9834;SDS011;4956;50.996;13.716;2023-02-02T16:26:55;4.05;;;2.17;;
9834;SDS011;4956;50.996;13.716;2023-02-02T16:30:22;7.55;;;2.40;;
9834;SDS011;4956;50.996;13.716;2023-02-02T16:33:45;5.90;;;2.35;;
9834;SDS011;4956;50.996;13.716;2023-02-02T16:37:26;6.05;;;2.90;;
9834;SDS011;4956;50.996;13.716;2023-02-02T16:41:00;5.47;;;2.60;;
9834;SDS011;4956;50.996;13.716;2023-02-02T16:44:29;6.30;;;2.88;;
9834;SDS011;4956;50.996;13.716;2023-02-02T16:47:50;7.47;;;3.10;;
9834;SDS011;4956;50.996;13.716;2023-02-02T16:54:34;8.32;;;3.22;;
9834;SDS011;4956;50.996;13.716;2023-02-02T16:57:55;8.55;;;2.80;;
9834;SDS011;4956;50.996;13.716;2023-02-02T17:01:16;9.52;;;2.20;;
9834;SDS011;4956;50.996;13.716;2023-02-02T17:04:36;6.10;;;1.90;;
9834;SDS011;4956;50.996;13.716;2023-02-02T17:07:57;5.50;;;1.88;;
9834;SDS011;4956;50.996;13.716;2023-02-02T17:11:23;4.57;;;1.75;;
9834;SDS011;4956;50.996;13.716;2023-02-02T17:14:54;8.13;;;1.83;;
9834;SDS011;4956;50.996;13.716;2023-02-02T17:18:24;4.22;;;2.05;;
9834;SDS011;4956;50.996;13.716;2023-02-02T17:21:44;6.60;;;2.15;;
9834;SDS011;4956;50.996;13.716;2023-02-02T17:25:14;5.72;;;2.10;;
9834;SDS011;4956;50.996;13.716;2023-02-02T17:28:37;6.32;;;2.25;;
9834;SDS011;4956;50.996;13.716;2023-02-02T17:31:58;10.25;;;3.00;;
9834;SDS011;4956;50.996;13.716;2023-02-02T17:35:19;7.50;;;2.88;;
9834;SDS011;4956;50.996;13.716;2023-02-02T17:38:41;6.55;;;2.83;;
9834;SDS011;4956;50.996;13.716;2023-02-02T17:42:02;7.43;;;3.30;;
9834;SDS011;4956;50.996;13.716;2023-02-02T17:45:23;6.75;;;3.70;;
9834;SDS011;4956;50.996;13.716;2023-02-02T17:48:48;10.65;;;4.25;;
9834;SDS011;4956;50.996;13.716;2023-02-02T17:52:09;10.35;;;4.18;;
9834;SDS011;4956;50.996;13.716;2023-02-02T17:55:30;8.50;;;3.67;;
9834;SDS011;4956;50.996;13.716;2023-02-02T17:58:52;9.68;;;3.65;;
9834;SDS011;4956;50.996;13.716;2023-02-02T18:02:12;10.07;;;4.25;;
9834;SDS011;4956;50.996;13.716;2023-02-02T18:05:35;10.20;;;4.60;;
9834;SDS011;4956;50.996;13.716;2023-02-02T18:08:56;8.45;;;3.42;;
9834;SDS011;4956;50.996;13.716;2023-02-02T18:12:16;5.97;;;3.10;;
9834;SDS011;4956;50.996;13.716;2023-02-02T18:15:37;9.13;;;3.72;;
9834;SDS011;4956;50.996;13.716;2023-02-02T18:18:57;8.73;;;4.68;;
9834;SDS011;4956;50.996;13.716;2023-02-02T18:22:17;9.75;;;3.80;;
9834;SDS011;4956;50.996;13.716;2023-02-02T18:25:38;10.63;;;3.58;;
9834;SDS011;4956;50.996;13.716;2023-02-02T18:28:58;14.15;;;3.92;;
9834;SDS011;4956;50.996;13.716;2023-02-02T18:32:19;11.18;;;4.72;;
9834;SDS011;4956;50.996;13.716;2023-02-02T18:35:40;9.07;;;4.05;;
9834;SDS011;4956;50.996;13.716;2023-02-02T18:39:03;7.80;;;4.22;;
9834;SDS011;4956;50.996;13.716;2023-02-02T18:42:23;9.30;;;3.75;;
9834;SDS011;4956;50.996;13.716;2023-02-02T18:45:58;7.57;;;4.10;;
9834;SDS011;4956;50.996;13.716;2023-02-02T18:49:23;12.85;;;4.68;;
9834;SDS011;4956;50.996;13.716;2023-02-02T18:52:43;11.73;;;5.20;;
9834;SDS011;4956;50.996;13.716;2023-02-02T18:56:04;10.02;;;4.30;;
9834;SDS011;4956;50.996;13.716;2023-02-02T18:59:25;10.80;;;4.68;;
9834;SDS011;4956;50.996;13.716;2023-02-02T19:02:47;8.52;;;3.83;;
9834;SDS011;4956;50.996;13.716;2023-02-02T19:06:08;9.60;;;3.30;;
9834;SDS011;4956;50.996;13.716;2023-02-02T19:09:47;6.22;;;2.63;;
9834;SDS011;4956;50.996;13.716;2023-02-02T19:16:38;6.68;;;2.70;;
9834;SDS011;4956;50.996;13.716;2023-02-02T19:19:58;8.43;;;2.95;;
9834;SDS011;4956;50.996;13.716;2023-02-02T19:23:22;7.85;;;2.85;;
9834;SDS011;4956;50.996;13.716;2023-02-02T19:26:49;5.38;;;2.97;;
9834;SDS011;4956;50.996;13.716;2023-02-02T19:30:17;7.60;;;3.15;;
9834;SDS011;4956;50.996;13.716;2023-02-02T19:33:40;6.15;;;3.38;;
9834;SDS011;4956;50.996;13.716;2023-02-02T19:40:44;11.88;;;3.80;;
9834;SDS011;4956;50.996;13.716;2023-02-02T19:44:08;9.48;;;3.60;;
9834;SDS011;4956;50.996;13.716;2023-02-02T19:47:30;6.18;;;3.50;;
9834;SDS011;4956;50.996;13.716;2023-02-02T19:50:53;7.32;;;4.22;;
9834;SDS011;4956;50.996;13.716;2023-02-02T19:54:27;13.05;;;7.25;;
9834;SDS011;4956;50.996;13.716;2023-02-02T19:57:51;10.10;;;5.15;;
9834;SDS011;4956;50.996;13.716;2023-02-02T20:01:17;6.50;;;3.60;;
9834;SDS011;4956;50.996;13.716;2023-02-02T20:04:39;7.90;;;3.80;;
9834;SDS011;4956;50.996;13.716;2023-02-02T20:08:21;8.13;;;4.15;;
9834;SDS011;4956;50.996;13.716;2023-02-02T20:11:45;7.78;;;3.63;;
9834;SDS011;4956;50.996;13.716;2023-02-02T20:15:19;7.75;;;3.60;;
9834;SDS011;4956;50.996;13.716;2023-02-02T20:18:54;7.55;;;3.25;;
9834;SDS011;4956;50.996;13.716;2023-02-02T20:25:41;7.47;;;3.97;;
9834;SDS011;4956;50.996;13.716;2023-02-02T20:29:13;6.47;;;3.53;;
9834;SDS011;4956;50.996;13.716;2023-02-02T20:32:37;8.35;;;3.78;;
9834;SDS011;4956;50.996;13.716;2023-02-02T20:35:59;7.72;;;4.20;;
9834;SDS011;4956;50.996;13.716;2023-02-02T20:39:29;6.75;;;3.63;;
9834;SDS011;4956;50.996;13.716;2023-02-02T20:43:01;4.78;;;2.92;;
9834;SDS011;4956;50.996;13.716;2023-02-02T20:46:21;9.65;;;3.40;;
9834;SDS011;4956;50.996;13.716;2023-02-02T20:49:42;7.63;;;3.60;;
9834;SDS011;4956;50.996;13.716;2023-02-02T20:53:02;9.65;;;3.60;;
9834;SDS011;4956;50.996;13.716;2023-02-02T20:56:23;8.98;;;3.20;;
9834;SDS011;4956;50.996;13.716;2023-02-02T20:59:43;6.68;;;3.10;;
9834;SDS011;4956;50.996;13.716;2023-02-02T21:03:04;6.38;;;2.78;;
9834;SDS011;4956;50.996;13.716;2023-02-02T21:06:24;7.40;;;3.25;;
9834;SDS011;4956;50.996;13.716;2023-02-02T21:09:45;11.10;;;3.63;;
9834;SDS011;4956;50.996;13.716;2023-02-02T21:13:06;8.23;;;3.40;;
9834;SDS011;4956;50.996;13.716;2023-02-02T21:16:27;8.68;;;3.33;;
9834;SDS011;4956;50.996;13.716;2023-02-02T21:19:47;7.90;;;3.33;;
9834;SDS011;4956;50.996;13.716;2023-02-02T21:23:07;5.20;;;3.10;;
9834;SDS011;4956;50.996;13.716;2023-02-02T21:26:29;7.50;;;3.45;;
9834;SDS011;4956;50.996;13.716;2023-02-02T21:29:49;7.35;;;3.25;;
9834;SDS011;4956;50.996;13.716;2023-02-02T21:33:09;5.60;;;3.20;;
9834;SDS011;4956;50.996;13.716;2023-02-02T21:36:36;10.13;;;3.08;;
9834;SDS011;4956;50.996;13.716;2023-02-02T21:39:58;7.93;;;3.20;;
9834;SDS011;4956;50.996;13.716;2023-02-02T21:43:18;6.82;;;3.00;;
9834;SDS011;4956;50.996;13.716;2023-02-02T21:46:39;7.18;;;3.00;;
9834;SDS011;4956;50.996;13.716;2023-02-02T21:50:09;6.15;;;2.97;;
9834;SDS011;4956;50.996;13.716;2023-02-02T21:53:34;8.35;;;3.17;;
9834;SDS011;4956;50.996;13.716;2023-02-02T21:56:54;5.50;;;2.83;;
9834;SDS011;4956;50.996;13.716;2023-02-02T22:00:21;6.47;;;2.90;;
9834;SDS011;4956;50.996;13.716;2023-02-02T22:03:44;5.88;;;2.70;;
9834;SDS011;4956;50.996;13.716;2023-02-02T22:07:13;8.63;;;2.75;;
9834;SDS011;4956;50.996;13.716;2023-02-02T22:10:35;5.13;;;2.88;;
9834;SDS011;4956;50.996;13.716;2023-02-02T22:14:11;7.45;;;3.03;;
9834;SDS011;4956;50.996;13.716;2023-02-02T22:17:38;5.18;;;2.78;;
9834;SDS011;4956;50.996;13.716;2023-02-02T22:20:59;4.55;;;2.47;;
9834;SDS011;4956;50.996;13.716;2023-02-02T22:24:19;9.25;;;3.25;;
9834;SDS011;4956;50.996;13.716;2023-02-02T22:27:41;8.30;;;2.90;;
9834;SDS011;4956;50.996;13.716;2023-02-02T22:31:05;6.40;;;3.13;;
9834;SDS011;4956;50.996;13.716;2023-02-02T22:34:25;11.27;;;3.60;;
9834;SDS011;4956;50.996;13.716;2023-02-02T22:37:45;9.60;;;3.70;;
9834;SDS011;4956;50.996;13.716;2023-02-02T22:41:06;8.07;;;3.53;;
9834;SDS011;4956;50.996;13.716;2023-02-02T22:44:27;6.90;;;3.33;;
9834;SDS011;4956;50.996;13.716;2023-02-02T22:47:48;9.00;;;3.33;;
9834;SDS011;4956;50.996;13.716;2023-02-02T22:51:09;6.50;;;3.72;;
9834;SDS011;4956;50.996;13.716;2023-02-02T22:54:29;9.32;;;3.95;;
9834;SDS011;4956;50.996;13.716;2023-02-02T22:57:50;11.73;;;4.30;;